createdAt,value
2022-11-10T00:00:21.149Z,31.88
2022-11-10T00:03:28.484Z,30.85
2022-11-10T00:06:37.143Z,31.08
2022-11-10T00:09:44.422Z,30.52
2022-11-10T00:12:52.353Z,30.75
2022-11-10T00:16:22.177Z,32.88
2022-11-10T00:19:29.520Z,30.70
2022-11-10T00:22:39.675Z,31.35
2022-11-10T00:25:46.695Z,31.50
2022-11-10T00:28:55.172Z,30.92
2022-11-10T00:32:02.173Z,29.88
2022-11-10T00:35:10.185Z,31.58
2022-11-10T00:38:18.986Z,30.75
2022-11-10T00:41:26.264Z,30.25
2022-11-10T00:44:33.469Z,31.30
2022-11-10T00:47:40.467Z,31.05
2022-11-10T00:50:47.516Z,30.80
2022-11-10T00:53:56.743Z,30.25
2022-11-10T00:57:04.182Z,31.77
2022-11-10T01:00:11.922Z,30.02
2022-11-10T01:03:20.362Z,29.65
2022-11-10T01:06:27.898Z,29.65
2022-11-10T01:09:36.184Z,31.02
2022-11-10T01:12:43.541Z,29.83
2022-11-10T01:15:50.729Z,31.58
2022-11-10T01:18:59.369Z,29.88
2022-11-10T01:22:06.426Z,32.38
2022-11-10T01:25:15.047Z,30.48
2022-11-10T01:28:22.283Z,30.15
2022-11-10T01:31:29.313Z,30.40
2022-11-10T01:34:36.647Z,29.70
2022-11-10T01:37:44.501Z,30.25
2022-11-10T01:40:53.785Z,30.88
2022-11-10T01:44:18.892Z,31.63
2022-11-10T01:47:26.644Z,31.05
2022-11-10T01:50:38.796Z,29.27
2022-11-10T01:53:50.684Z,31.00
2022-11-10T01:57:02.058Z,30.90
2022-11-10T02:00:11.120Z,31.92
2022-11-10T02:03:25.305Z,31.05
2022-11-10T02:06:36.228Z,30.63
2022-11-10T02:09:43.206Z,31.20
2022-11-10T02:12:51.924Z,31.05
2022-11-10T02:15:59.266Z,31.02
2022-11-10T02:19:18.407Z,30.98
2022-11-10T02:22:27.060Z,30.67
2022-11-10T02:25:34.197Z,31.17
2022-11-10T02:28:41.393Z,31.17
2022-11-10T02:31:48.555Z,31.98
2022-11-10T02:34:55.708Z,30.38
2022-11-10T02:38:04.265Z,32.13
2022-11-10T02:41:11.095Z,30.88
2022-11-10T02:44:17.936Z,31.70
2022-11-10T02:47:24.898Z,30.05
2022-11-10T02:50:32.111Z,30.48
2022-11-10T02:53:40.426Z,30.77
2022-11-10T02:56:47.493Z,30.80
2022-11-10T02:59:54.835Z,30.98
2022-11-10T03:03:03.357Z,31.95
2022-11-10T03:06:10.516Z,30.95
2022-11-10T03:09:19.037Z,31.52
2022-11-10T03:12:26.529Z,30.17
2022-11-10T03:15:33.923Z,30.92
2022-11-10T03:18:41.189Z,30.90
2022-11-10T03:21:47.948Z,30.98
2022-11-10T03:24:56.379Z,30.45
2022-11-10T03:28:03.385Z,32.33
2022-11-10T03:31:10.153Z,32.20
2022-11-10T03:34:17.032Z,30.58
2022-11-10T03:37:24.020Z,31.65
2022-11-10T03:40:45.545Z,31.27
2022-11-10T03:44:00.005Z,30.17
2022-11-10T03:47:07.109Z,31.98
2022-11-10T03:50:13.902Z,31.55
2022-11-10T03:53:21.239Z,31.15
2022-11-10T03:56:29.893Z,30.83
2022-11-10T03:59:36.873Z,32.28
2022-11-10T04:02:44.281Z,31.73
2022-11-10T04:06:05.441Z,31.25
2022-11-10T04:09:12.568Z,30.48
2022-11-10T04:12:38.620Z,31.13
2022-11-10T04:15:45.581Z,32.85
2022-11-10T04:18:52.836Z,31.85
2022-11-10T04:21:59.794Z,32.13
2022-11-10T04:25:07.993Z,32.10
2022-11-10T04:28:16.359Z,30.40
2022-11-10T04:31:25.014Z,31.88
2022-11-10T04:34:32.065Z,32.55
2022-11-10T04:37:39.107Z,32.65
2022-11-10T04:40:46.135Z,32.63
2022-11-10T04:43:54.749Z,32.60
2022-11-10T04:47:01.825Z,32.00
2022-11-10T04:50:09.228Z,33.08
2022-11-10T04:53:16.573Z,32.88
2022-11-10T04:56:24.995Z,32.60
2022-11-10T04:59:33.532Z,32.28
2022-11-10T05:02:40.703Z,32.97
2022-11-10T05:05:49.235Z,33.47
2022-11-10T05:08:56.076Z,32.08
2022-11-10T05:12:03.236Z,32.92
2022-11-10T05:15:12.819Z,33.28
2022-11-10T05:18:20.275Z,32.47
2022-11-10T05:21:27.593Z,35.28
2022-11-10T05:24:34.900Z,34.67
2022-11-10T05:27:42.307Z,32.42
2022-11-10T05:30:50.939Z,33.30
2022-11-10T05:33:58.298Z,33.67
2022-11-10T05:37:05.479Z,32.58
2022-11-10T05:40:13.024Z,34.25
2022-11-10T05:43:20.564Z,34.47
2022-11-10T05:46:29.142Z,33.78
2022-11-10T05:49:36.075Z,33.38
2022-11-10T05:52:49.996Z,35.40
2022-11-10T05:55:57.614Z,36.60
2022-11-10T05:59:04.831Z,35.35
2022-11-10T06:02:13.277Z,35.88
2022-11-10T06:05:20.191Z,35.60
2022-11-10T06:08:27.252Z,35.55
2022-11-10T06:11:34.028Z,35.72
2022-11-10T06:14:41.344Z,34.78
2022-11-10T06:17:50.415Z,35.72
2022-11-10T06:20:57.536Z,34.70
2022-11-10T06:24:05.017Z,34.25
2022-11-10T06:27:12.172Z,35.20
2022-11-10T06:30:19.098Z,34.40
2022-11-10T06:33:27.557Z,34.13
2022-11-10T06:36:34.689Z,34.60
2022-11-10T06:39:41.376Z,33.60
2022-11-10T06:42:49.038Z,35.33
2022-11-10T06:45:56.125Z,33.47
2022-11-10T06:49:04.841Z,33.78
2022-11-10T06:52:11.573Z,34.40
2022-11-10T06:55:19.049Z,34.45
2022-11-10T06:58:26.365Z,34.17
2022-11-10T07:01:33.264Z,32.63
2022-11-10T07:04:42.911Z,35.65
2022-11-10T07:07:50.080Z,34.15
2022-11-10T07:10:57.711Z,35.15
2022-11-10T07:14:04.607Z,33.08
2022-11-10T07:17:11.482Z,33.50
2022-11-10T07:20:20.212Z,32.55
2022-11-10T07:23:27.063Z,33.75
2022-11-10T07:26:34.339Z,33.50
2022-11-10T07:29:41.425Z,31.40
2022-11-10T07:32:48.674Z,32.60
2022-11-10T07:35:58.893Z,35.70
2022-11-10T07:39:05.969Z,36.13
2022-11-10T07:42:12.805Z,35.72
2022-11-10T07:45:19.702Z,33.60
2022-11-10T07:48:26.647Z,33.75
2022-11-10T07:51:35.144Z,33.80
2022-11-10T07:54:42.147Z,33.92
2022-11-10T07:57:49.446Z,33.00
2022-11-10T08:00:56.537Z,33.47
2022-11-10T08:04:04.035Z,32.80
2022-11-10T08:07:12.421Z,32.30
2022-11-10T08:10:19.743Z,31.38
2022-11-10T08:13:26.723Z,31.88
2022-11-10T08:16:34.364Z,30.60
2022-11-10T08:19:41.368Z,31.30
2022-11-10T08:22:49.657Z,29.50
2022-11-10T08:26:00.152Z,31.23
2022-11-10T08:29:07.275Z,29.95
2022-11-10T08:32:14.534Z,29.95
2022-11-10T08:35:21.655Z,30.02
2022-11-10T08:38:30.080Z,29.58
2022-11-10T08:41:36.881Z,27.77
2022-11-10T08:44:43.952Z,27.83
2022-11-10T08:47:58.113Z,28.60
2022-11-10T08:51:05.506Z,27.20
2022-11-10T08:54:13.922Z,27.67
2022-11-10T08:57:21.067Z,27.17
2022-11-10T09:00:29.645Z,25.52
2022-11-10T09:03:37.235Z,27.10
2022-11-10T09:06:44.198Z,26.88
2022-11-10T09:10:06.881Z,26.00
2022-11-10T09:13:16.558Z,26.95
2022-11-10T09:16:23.628Z,25.95
2022-11-10T09:19:31.196Z,26.23
2022-11-10T09:22:38.693Z,26.73
2022-11-10T09:25:52.002Z,26.40
2022-11-10T09:28:58.917Z,26.77
2022-11-10T09:32:05.935Z,26.45
2022-11-10T09:35:13.484Z,26.95
2022-11-10T09:38:21.268Z,26.90
2022-11-10T09:41:31.189Z,25.52
2022-11-10T09:44:47.075Z,26.02
2022-11-10T09:48:01.850Z,25.52
2022-11-10T09:51:13.746Z,26.88
2022-11-10T09:54:33.431Z,25.27
2022-11-10T09:57:48.693Z,25.35
2022-11-10T10:01:13.007Z,27.10
2022-11-10T10:04:37.591Z,26.30
2022-11-10T10:07:52.582Z,24.45
2022-11-10T10:11:14.489Z,25.92
2022-11-10T10:14:57.965Z,26.98
2022-11-10T10:18:17.735Z,25.95
2022-11-10T10:21:45.749Z,26.13
2022-11-10T10:24:58.136Z,26.17
2022-11-10T10:28:13.726Z,26.38
2022-11-10T10:31:24.530Z,26.70
2022-11-10T10:34:34.739Z,27.00
2022-11-10T10:37:45.417Z,25.77
2022-11-10T10:40:54.157Z,24.27
2022-11-10T10:44:03.077Z,25.33
2022-11-10T10:47:10.141Z,24.60
2022-11-10T10:50:25.020Z,22.77
2022-11-10T10:53:32.476Z,23.58
2022-11-10T10:56:40.035Z,23.67
2022-11-10T10:59:47.164Z,22.85
2022-11-10T11:03:04.674Z,22.70
2022-11-10T11:06:25.595Z,22.45
2022-11-10T11:09:41.714Z,22.60
2022-11-10T11:12:48.822Z,22.95
2022-11-10T11:16:01.740Z,21.55
2022-11-10T11:19:10.167Z,22.10
2022-11-10T11:22:43.805Z,22.13
2022-11-10T15:54:58.738Z,16.55
2022-11-10T15:58:09.749Z,15.95
2022-11-10T16:01:18.518Z,15.82
2022-11-10T16:04:28.376Z,16.08
2022-11-10T16:07:35.699Z,16.40
2022-11-10T16:10:46.481Z,15.73
2022-11-10T16:13:54.868Z,15.70
2022-11-10T16:17:01.999Z,15.13
2022-11-10T16:20:15.204Z,16.60
2022-11-10T16:23:22.880Z,15.35
2022-11-10T16:26:32.201Z,14.70
2022-11-10T16:29:39.812Z,14.32
2022-11-10T16:32:46.924Z,14.02
2022-11-10T16:35:56.413Z,14.70
2022-11-10T16:39:04.632Z,14.38
2022-11-10T16:42:13.525Z,14.20
2022-11-10T16:45:22.496Z,13.57
2022-11-10T16:48:31.911Z,14.98
2022-11-10T16:51:47.187Z,14.82
2022-11-10T16:54:56.050Z,14.35
2022-11-10T16:58:04.752Z,14.48
2022-11-10T17:01:19.367Z,14.98
2022-11-10T17:04:26.731Z,15.20
2022-11-10T17:07:35.257Z,15.38
2022-11-10T17:10:42.130Z,14.57
2022-11-10T17:13:50.624Z,15.93
2022-11-10T17:16:57.655Z,15.68
2022-11-10T17:20:06.695Z,14.70
2022-11-10T17:23:17.413Z,16.17
2022-11-10T17:26:24.921Z,15.70
2022-11-10T17:29:33.397Z,16.48
2022-11-10T17:33:03.476Z,18.23
2022-11-10T17:36:14.023Z,16.77
2022-11-10T17:39:22.671Z,15.75
2022-11-10T17:42:29.450Z,15.93
2022-11-10T17:45:37.944Z,16.17
2022-11-10T17:48:47.674Z,15.68
2022-11-10T17:51:55.240Z,15.50
2022-11-10T17:55:02.395Z,15.82
2022-11-10T17:58:10.593Z,16.13
2022-11-10T18:01:22.603Z,17.05
2022-11-10T18:04:29.924Z,17.27
2022-11-10T18:07:37.337Z,17.60
2022-11-10T18:10:47.766Z,16.80
2022-11-10T18:13:54.826Z,16.48
2022-11-10T18:17:03.342Z,17.20
2022-11-10T18:20:11.860Z,16.98
2022-11-10T18:23:19.315Z,16.67
2022-11-10T18:26:26.602Z,17.08
2022-11-10T18:29:33.780Z,16.20
2022-11-10T18:32:42.502Z,17.88
2022-11-10T18:35:49.958Z,16.92
2022-11-10T18:38:57.403Z,16.75
2022-11-10T18:42:04.873Z,17.17
2022-11-10T18:45:13.049Z,16.92
2022-11-10T18:48:25.570Z,16.65
2022-11-10T18:51:36.079Z,16.70
2022-11-10T18:54:43.014Z,16.33
2022-11-10T18:57:50.308Z,16.75
2022-11-10T19:01:04.425Z,16.55
2022-11-10T19:04:13.898Z,15.48
2022-11-10T19:07:21.117Z,16.15
2022-11-10T19:10:27.988Z,16.20
2022-11-10T19:13:35.525Z,16.40
2022-11-10T19:16:42.625Z,16.48
2022-11-10T19:19:56.147Z,16.67
2022-11-10T19:23:03.520Z,17.20
2022-11-10T19:26:12.253Z,16.90
2022-11-10T19:29:21.417Z,17.27
2022-11-10T19:32:28.350Z,17.60
2022-11-10T19:35:42.118Z,17.08
2022-11-10T19:38:49.077Z,19.80
2022-11-10T19:41:56.754Z,19.55
2022-11-10T19:45:03.945Z,18.73
2022-11-10T19:48:10.900Z,17.80
2022-11-10T19:51:20.254Z,16.88
2022-11-10T19:54:27.379Z,17.50
2022-11-10T19:57:34.470Z,17.75
2022-11-10T20:00:45.974Z,17.85
2022-11-10T20:03:53.098Z,17.35
2022-11-10T20:07:18.911Z,18.40
2022-11-10T20:10:26.535Z,18.52
2022-11-10T20:13:34.533Z,18.15
2022-11-10T20:16:41.389Z,18.38
2022-11-10T20:19:49.177Z,18.85
2022-11-10T20:23:02.434Z,17.90
2022-11-10T20:26:11.900Z,21.60
2022-11-10T20:29:19.089Z,19.27
2022-11-10T20:32:27.156Z,20.15
2022-11-10T20:35:39.983Z,19.38
2022-11-10T20:38:48.805Z,17.92
2022-11-10T20:41:55.948Z,18.35
2022-11-10T20:45:02.965Z,18.48
2022-11-10T20:48:10.069Z,18.42
2022-11-10T20:51:19.295Z,17.65
2022-11-10T20:54:27.825Z,17.95
2022-11-10T20:57:35.104Z,18.00
2022-11-10T21:00:44.061Z,18.55
2022-11-10T21:03:51.511Z,18.35
2022-11-10T21:06:59.089Z,18.60
2022-11-10T21:10:08.552Z,17.90
2022-11-10T21:13:15.886Z,18.33
2022-11-10T21:16:22.971Z,19.05
2022-11-10T21:19:34.161Z,18.35
2022-11-10T21:22:41.371Z,18.13
2022-11-10T21:25:55.237Z,19.60
2022-11-10T21:29:02.972Z,19.25
2022-11-10T21:32:10.306Z,19.23
2022-11-10T21:35:18.186Z,20.40
2022-11-10T21:38:25.971Z,19.30
2022-11-10T21:41:34.893Z,20.77
2022-11-10T21:44:42.040Z,20.02
2022-11-10T21:47:49.099Z,20.48
2022-11-10T21:51:01.063Z,19.27
2022-11-10T21:54:10.498Z,19.30
2022-11-10T21:57:18.881Z,17.55
2022-11-10T22:00:27.811Z,18.50
2022-11-10T22:03:36.147Z,17.58
2022-11-10T22:07:01.001Z,16.48
2022-11-10T22:10:27.642Z,16.88
2022-11-10T22:13:53.437Z,16.48
2022-11-10T22:17:18.542Z,15.68
2022-11-10T22:20:25.823Z,16.77
2022-11-10T22:24:02.401Z,17.23
2022-11-10T22:27:09.795Z,15.63
2022-11-10T22:30:18.199Z,16.88
2022-11-10T22:33:28.162Z,17.00
2022-11-10T22:36:35.404Z,16.75
2022-11-10T22:40:00.074Z,16.98
2022-11-10T22:43:24.943Z,17.38
2022-11-10T22:46:36.520Z,17.90
2022-11-10T22:49:44.157Z,17.02
2022-11-10T22:52:51.136Z,18.90
2022-11-10T22:56:01.260Z,17.15
2022-11-10T22:59:08.488Z,17.85
2022-11-10T23:02:16.725Z,18.23
2022-11-10T23:05:23.640Z,18.42
2022-11-10T23:08:31.558Z,17.83
2022-11-10T23:11:38.477Z,17.38
2022-11-10T23:14:45.602Z,17.88
2022-11-10T23:17:55.600Z,16.98
2022-11-10T23:21:04.724Z,18.05
2022-11-10T23:24:13.611Z,17.27
2022-11-10T23:27:20.464Z,21.55
2022-11-10T23:30:27.429Z,17.90
2022-11-10T23:33:36.228Z,17.48
2022-11-10T23:36:43.415Z,16.75
2022-11-10T23:39:50.631Z,18.83
2022-11-10T23:42:57.691Z,17.23
2022-11-10T23:46:07.476Z,17.90
2022-11-10T23:49:16.720Z,17.55
2022-11-10T23:52:24.214Z,17.90
2022-11-10T23:55:31.202Z,17.42
2022-11-10T23:58:38.549Z,18.02
